Observations for NEW YORK JF KENNEDY, NY (JFK)

KJFK 221451Z 25012KT 10SM FEW035 BKN110 BKN190 09/01 A3027 RMK AO2 SLP251 T00890006 51008   
KJFK 221351Z 25011KT 10SM FEW032 BKN110 08/01 A3027 RMK AO2 SLP251 T00830011 VISNO W $  
KJFK 221251Z 26011KT 10SM FEW030 BKN110 07/01 A3027 RMK AO2 SLP250 T00720011 VISNO W $  
KJFK 221151Z 26010KT 10SM FEW030 BKN120 06/01 A3025 RMK AO2 SLP243 T00560006 10056 20039 51009 VISNO W $
KJFK 221051Z 25008KT 10SM FEW025 FEW140 FEW250 04/00 A3025 RMK AO2 SLP242 T00440000 VISNO W $   
KJFK 220951Z 26007KT 10SM FEW024 FEW140 04/M01 A3024 RMK AO2 SLP238 T00391006 VISNO W $ 
KJFK 220851Z 25008KT 10SM FEW140 04/M01 A3022 RMK AO2 SLP233 T00391011 51006 VISNO W $  
KJFK 220751Z 27010KT 10SM CLR 04/M02 A3022 RMK AO2 SLP233 T00441017 VISNO W $   
KJFK 220651Z 29010KT 10SM CLR 04/M03 A3021 RMK AO2 SLP230 T00441033 VISNO W $   
KJFK 220551Z 29007KT 10SM CLR 04/M03 A3020 RMK AO2 SLP227 T00441028 10061 20044 51008 VISNO W $ 
KJFK 220451Z 29008KT 10SM CLR 04/M03 A3020 RMK AO2 SLP226 T00441033 401170044 VISNO W $ 
KJFK 220351Z 30009KT 10SM CLR 05/M04 A3019 RMK AO2 SLP223 T00501039 VISNO W $   
KJFK 220251Z 31011KT 10SM CLR 05/M04 A3018 RMK AO2 SLP219 T00501039 51018 VISNO W $ 
KJFK 220151Z 31012G17KT 10SM FEW150 06/M04 A3016 RMK AO2 SLP214 T00561044 VISNO W $ 
KJFK 220051Z 31013G20KT 10SM FEW050 06/M04 A3016 RMK AO2 SLP211 T00561044 VISNO W $ 
KJFK 212351Z 31014G22KT 10SM FEW050 06/M04 A3013 RMK AO2 SLP202 T00611044 10100 20061 51038 VISNO W $   
KJFK 212251Z 31019G26KT 10SM FEW050 07/M04 A3010 RMK AO2 PK WND 31026/2207 SLP192 T00671044 VISNO W $   
KJFK 212151Z 31019G29KT 10SM FEW055 07/M05 A3006 RMK AO2 PK WND 31029/2146 SLP178 T00721050 VISNO W $   
KJFK 212051Z 31021G27KT 10SM SCT055 08/M04 A3002 RMK AO2 PK WND 30030/2009 SLP164 T00831039 53019 VISNO W $ 
KJFK 211951Z 30020G29KT 10SM SCT055 08/M04 A2999 RMK AO2 PK WND 32034/1855 SLP154 T00831039 VISNO W $   
KJFK 211851Z 33026G35KT 10SM BKN050 09/M03 A2997 RMK AO2 PK WND 30035/1846 SLP149 T00941033 VISNO W $   
KJFK 211751Z 31022G32KT 10SM BKN050 09/M03 A2996 RMK AO2 PK WND 32034/1734 SLP144 T00941028 10094 20078 51007 VISNO W $ 
KJFK 211651Z 31020G32KT 10SM BKN048 09/M02 A2995 RMK AO2 PK WND 34035/1634 SLP141 T00941017 VISNO W $   
KJFK 211551Z 34024G32KT 10SM BKN048 BKN100 BKN250 08/M02 A2995 RMK AO2 PK WND 32037/1454 SLP143 T00831022 VISNO W $ 
KJFK 211451Z 31029G36KT 10SM BKN046 BKN100 BKN250 08/M02 A2994 RMK AO2 PK WND 31036/1450 SLP137 T00831017 51045 VISNO W $